Latest Weather Observations for Cape Sorell

IDT60801

Issued at 5:31 pm EDT Friday 27 March 2015 (issued every 30 minutes, with the page automatically refreshed every 10 minutes)

About weather observations | Map of weather stations | Latest weather observations for TAS | Other Formats
Station Details ID: 097000 Name: CAPE SORELL Lat: -42.20 Lon: 145.17 Height: 19.3 m
Data from the previous 72 hours. | See also: Recent months at Cape Sorell
Date/Time
EDT
Temp
°C
App
Temp
°C
Dew
Point
Rel
Hum
%
Delta-T
°C
Wind Press
QNH
hPa
Press
MSL
hPa
Rain
since 9 am
mm
Dir
 
Spd
km/h
Gust
km/h
Spd
kts
Gust
kts
27/05:30pm 13.1 5.4 12.0 93 0.6 SSW 44 50 24 27 1019.3 1019.2 2.0
27/05:00pm 13.4 5.8 12.5 94 0.5 SSW 44 50 24 27 1019.0 1018.9 2.0
27/04:30pm 13.1 5.0 12.2 94 0.5 SSW 46 54 25 29 1018.7 1018.6 2.0
27/04:00pm 13.4 5.1 12.6 95 0.4 SSW 48 56 26 30 1018.5 1018.4 2.0
27/03:30pm 13.6 5.3 12.7 94 0.5 SSW 48 57 26 31 1018.3 1018.2 2.0
27/03:00pm 13.9 5.8 13.1 95 0.4 SSW 48 57 26 31 1018.1 1018.0 2.0
27/02:30pm 14.2 5.5 13.6 96 0.3 SSW 52 61 28 33 1017.9 1017.8 2.0
27/02:00pm 14.6 6.1 14.3 98 0.2 SSW 52 61 28 33 1017.9 1017.8 2.0
27/01:30pm 14.2 5.6 13.9 98 0.2 SSW 52 61 28 33 1017.9 1017.8 2.0
27/01:00pm 14.5 5.7 14.5 100 0.0 SSW 54 63 29 34 1017.8 1017.7 2.0
27/12:30pm 14.3 5.4 14.3 100 0.0 SSW 54 61 29 33 1017.5 1017.4 2.0
27/12:00pm 13.5 7.2 13.5 100 0.0 SSW 39 61 21 33 1017.3 1017.2 2.0
27/11:33am 12.7 6.1 12.7 100 0.0 S 39 63 21 34 1017.4 1017.3 1.0
27/11:30am 12.5 5.9 12.5 100 0.0 S 39 52 21 28 1017.5 1017.4 1.0
27/11:07am 12.3 5.6 12.3 100 0.0 S 39 57 21 31 1017.1 1017.0 1.0
27/11:00am 12.2 5.1 12.2 100 0.0 S 41 54 22 29 1017.1 1017.0 1.0
27/10:30am 13.8 6.3 13.8 100 0.0 SSW 46 59 25 32 1015.9 1015.8 0.4
27/10:00am 13.2 5.1 13.2 100 0.0 SSW 48 57 26 31 1015.8 1015.7 0.4
27/09:30am 12.8 7.6 12.8 100 0.0 SSW 32 41 17 22 1015.3 1015.3 0.2
27/09:00am 12.4 5.4 12.4 100 0.0 SSW 41 50 22 27 1014.9 1014.9 8.0
27/08:30am 12.6 8.1 12.6 100 0.0 S 28 39 15 21 1014.4 1014.4 8.0
27/08:00am 12.6 4.3 12.6 100 0.0 SSW 48 61 26 33 1013.5 1013.5 6.8
27/07:59am 12.8 4.9 12.8 100 0.0 SSW 46 61 25 33 1013.5 1013.5 6.8
27/07:30am 12.9 6.8 12.9 100 0.0 SW 37 46 20 25 1013.1 1013.1 6.2
27/07:00am 11.8 7.8 11.8 100 0.0 SW 24 30 13 16 1013.5 1013.5 6.0
27/06:30am 10.4 9.4 10.4 100 0.0 E 6 11 3 6 1013.6 1013.6 5.6
27/06:00am 10.1 8.8 10.1 100 0.0 E 7 9 4 5 1013.5 1013.5 5.2
27/05:30am 10.0 8.0 10.0 100 0.0 E 11 13 6 7 1013.3 1013.3 5.2
27/05:00am 9.7 8.3 9.7 100 0.0 ESE 7 9 4 5 1013.0 1013.0 4.6
27/04:30am 9.4 8.2 9.4 100 0.0 SSE 6 7 3 4 1012.7 1012.7 4.6
27/04:00am 9.6 7.8 9.5 99 0.0 SE 9 11 5 6 1012.3 1012.3 4.6
27/03:30am 9.8 7.7 9.8 100 0.0 SE 11 13 6 7 1012.4 1012.4 4.6
27/03:00am 9.9 7.5 9.9 100 0.0 SSE 13 20 7 11 1012.2 1012.2 4.6
27/02:30am 8.7 5.9 8.7 100 0.0 SE 13 15 7 8 1012.0 1012.0 4.6
27/02:00am 8.3 5.4 8.2 99 0.0 E 13 17 7 9 1011.2 1011.2 4.6
27/01:30am 9.1 6.1 9.1 100 0.0 E 15 17 8 9 1010.9 1010.9 4.6
27/01:00am 10.0 6.4 10.0 100 0.0 NE 19 24 10 13 1010.2 1010.2 4.6
27/12:30am 11.0 6.8 11.0 100 0.0 NE 24 28 13 15 1010.1 1010.1 4.6
27/12:00am 10.6 6.2 10.4 99 0.1 NNE 24 28 13 15 1010.1 1010.1 4.6
 
Date/Time
EDT
Temp
°C
App
Temp
°C
Dew
Point
Rel
Hum
%
Delta-T
°C
Wind Press
QNH
hPa
Press
MSL
hPa
Rain
since 9 am
mm
Dir
 
Spd
km/h
Gust
km/h
Spd
kts
Gust
kts
26/11:30pm 10.6 7.9 10.3 98 0.2 NNE 15 19 8 10 1010.4 1010.4 4.6
26/11:00pm 10.9 8.2 10.3 96 0.3 NE 15 20 8 11 1010.6 1010.6 3.8
26/10:30pm 10.3 8.4 9.1 92 0.6 ENE 9 13 5 7 1011.0 1011.0 2.6
26/10:00pm 10.2 8.5 8.3 88 0.9 ESE 7 9 4 5 1011.3 1011.3 2.6
26/09:30pm 10.6 9.1 8.4 86 1.1 SSW 6 11 3 6 1011.5 1011.5 2.4
26/09:00pm 11.0 8.2 8.4 84 1.3 SW 13 20 7 11 1011.5 1011.5 2.0
26/08:30pm 11.0 6.4 8.1 82 1.4 SW 22 30 12 16 1011.2 1011.2 1.6
26/08:00pm 12.8 9.7 8.7 76 2.1 NNW 15 19 8 10 1010.7 1010.7 0.8
26/07:30pm 12.8 8.9 8.7 76 2.1 N 19 22 10 12 1010.7 1010.7 0.8
26/07:00pm 13.2 9.1 8.7 74 2.3 N 20 24 11 13 1010.7 1010.7 0.8
26/06:30pm 13.4 11.7 8.3 71 2.5 N 7 11 4 6 1010.6 1010.6 0.8
26/06:00pm 14.4 13.1 9.2 71 2.7 NNW 6 9 3 5 1010.7 1010.7 0.8
26/05:30pm 14.5 13.6 9.1 70 2.8 N 4 6 2 3 1010.5 1010.5 0.8
26/05:00pm 14.7 13.9 9.5 71 2.7 N 4 6 2 3 1010.5 1010.5 0.8
26/04:30pm 14.9 13.7 9.7 71 2.7 N 6 7 3 4 1010.6 1010.6 0.6
26/04:00pm 15.3 13.7 10.1 71 2.7 W 9 15 5 8 1010.6 1010.6 0.6
26/03:30pm 15.5 14.0 10.5 72 2.6 N 9 13 5 7 1010.5 1010.5 0.6
26/03:00pm 15.0 12.9 9.8 71 2.7 N 11 15 6 8 1010.8 1010.8 0.6
26/02:30pm 15.2 13.0 10.8 75 2.3 N 13 17 7 9 1010.7 1010.7 0.6
26/02:00pm 13.3 10.1 10.1 81 1.7 N 17 22 9 12 1010.8 1010.8 0.6
26/01:30pm 13.0 11.0 10.2 83 1.4 N 11 17 6 9 1011.0 1011.0 0.6
26/01:00pm 11.0 8.1 8.1 82 1.4 NNW 13 28 7 15 1011.1 1011.1 0.6
26/12:30pm 11.9 8.0 8.6 80 1.6 NNW 19 28 10 15 1011.2 1011.2 0.4
26/12:00pm 13.4 10.5 9.8 79 1.9 N 15 20 8 11 1011.2 1011.2 0.0
26/11:30am 13.0 10.1 9.8 81 1.6 NNW 15 20 8 11 1011.1 1011.1 0.0
26/11:00am 12.3 7.9 9.1 81 1.6 NNE 22 28 12 15 1011.1 1011.1 0.0
26/10:30am 12.8 8.2 9.8 82 1.5 NNE 24 32 13 17 1011.0 1011.0 0.0
26/10:00am 11.8 7.9 9.5 86 1.2 NNE 20 24 11 13 1010.8 1010.8 0.0
26/09:30am 10.3 6.1 8.4 88 0.9 NE 20 28 11 15 1010.8 1010.8 0.0
26/09:00am 10.1 5.6 8.7 91 0.7 NE 22 28 12 15 1010.9 1010.9 3.6
26/08:30am 9.7 5.2 8.5 92 0.6 NE 22 30 12 16 1010.8 1010.8 3.6
26/08:00am 9.7 3.7 8.8 94 0.4 NE 30 35 16 19 1010.6 1010.6 3.6
26/07:30am 9.9 4.0 9.1 95 0.4 NE 30 35 16 19 1010.4 1010.4 3.6
26/07:00am 9.9 3.6 9.0 94 0.4 NNE 32 37 17 20 1010.2 1010.2 3.0
26/06:30am 9.9 4.4 9.0 94 0.4 NNE 28 32 15 17 1010.1 1010.1 1.8
26/06:00am 9.5 5.4 8.6 94 0.4 NE 20 28 11 15 1010.0 1010.0 1.4
26/05:30am 9.5 4.6 8.3 92 0.6 ENE 24 32 13 17 1009.7 1009.7 1.4
26/05:00am 10.2 4.4 8.1 87 1.0 NE 28 32 15 17 1009.9 1009.9 1.2
26/04:30am 11.1 5.5 8.8 86 1.1 N 28 35 15 19 1010.0 1010.0 1.2
26/04:00am 11.1 6.5 8.0 81 1.5 N 22 28 12 15 1010.3 1010.3 1.0
26/03:30am 11.2 5.8 7.9 80 1.6 NNW 26 33 14 18 1010.9 1010.9 0.8
26/03:00am 11.3 4.4 7.4 77 1.9 NW 33 46 18 25 1010.7 1010.7 0.4
26/02:30am 12.7 4.4 7.8 72 2.4 NW 41 67 22 36 1010.0 1010.0 0.4
26/02:26am 13.2 4.9 7.9 70 2.6 N 41 67 22 36 1009.8 1009.8 0.4
26/02:24am 13.6 5.3 7.8 68 2.9 NNE 41 67 22 36 1009.5 1009.5 0.4
26/02:23am 14.5 6.8 8.7 68 2.9 NNE 39 67 21 36 1009.5 1009.5 0.4
26/02:00am 14.1 8.4 8.5 69 2.8 NE 28 33 15 18 1009.2 1009.2 0.4
26/01:30am 13.9 7.4 8.3 69 2.8 NE 32 37 17 20 1009.5 1009.5 0.4
26/01:00am 13.6 8.2 8.2 70 2.7 NE 26 35 14 19 1010.0 1010.0 0.4
26/12:30am 13.4 7.7 8.5 72 2.5 NE 28 37 15 20 1010.4 1010.4 0.4
26/12:00am 13.7 6.1 9.0 73 2.4 NNE 39 46 21 25 1010.7 1010.7 0.4
 
Date/Time
EDT
Temp
°C
App
Temp
°C
Dew
Point
Rel
Hum
%
Delta-T
°C
Wind Press
QNH
hPa
Press
MSL
hPa
Rain
since 9 am
mm
Dir
 
Spd
km/h
Gust
km/h
Spd
kts
Gust
kts
25/11:30pm 13.9 6.3 9.1 73 2.4 NNE 39 48 21 26 1010.7 1010.7 0.4
25/11:00pm 14.1 7.3 9.3 73 2.5 NNE 35 44 19 24 1011.1 1011.1 0.4
25/10:30pm 14.2 7.4 9.4 73 2.5 NNE 35 43 19 23 1011.4 1011.4 0.4
25/10:00pm 14.4 5.9 9.4 72 2.6 NNE 44 54 24 29 1011.0 1011.0 0.4
25/09:55pm 14.3 6.0 9.3 72 2.6 NNE 43 54 23 29 1010.8 1010.8 0.4
25/09:30pm 14.3 8.8 9.3 72 2.6 NNE 28 35 15 19 1011.6 1011.6 0.4
25/09:00pm 14.9 9.3 10.1 73 2.5 N 30 35 16 19 1011.7 1011.7 0.4
25/08:30pm 14.9 9.7 10.1 73 2.5 N 28 33 15 18 1011.5 1011.5 0.4
25/08:00pm 14.6 9.7 10.0 74 2.4 N 26 32 14 17 1011.2 1011.2 0.4
25/07:30pm 14.7 9.1 10.1 74 2.4 N 30 35 16 19 1011.2 1011.2 0.4
25/07:06pm 14.8 8.0 9.4 70 2.8 N 35 54 19 29 1011.2 1011.2 0.4
25/07:00pm 14.6 6.7 9.4 71 2.7 N 41 54 22 29 1011.2 1011.2 0.4
25/06:56pm 14.7 7.3 9.7 72 2.6 N 39 54 21 29 1011.0 1011.0 0.4
25/06:30pm 15.2 9.6 10.2 72 2.6 N 30 35 16 19 1011.4 1011.4 0.4
25/06:00pm 15.1 9.7 9.5 69 2.9 N 28 35 15 19 1011.5 1011.5 0.4
25/05:30pm 15.7 10.4 10.0 69 3.0 N 28 35 15 19 1011.5 1011.5 0.4
25/05:00pm 15.9 10.1 9.6 66 3.3 N 30 35 16 19 1011.5 1011.5 0.4
25/04:30pm 16.2 11.0 10.3 68 3.1 NNW 28 37 15 20 1011.6 1011.6 0.4
25/04:00pm 15.6 10.0 10.2 70 2.8 N 30 39 16 21 1011.8 1011.8 0.4
25/03:30pm 15.6 8.8 9.3 66 3.2 NNW 35 41 19 22 1012.0 1012.0 0.4
25/03:00pm 15.5 8.9 10.1 70 2.8 N 35 44 19 24 1012.2 1012.2 0.4
25/02:30pm 14.9 9.7 11.5 80 1.8 N 30 39 16 21 1012.7 1012.7 0.4
25/02:00pm 13.4 8.1 10.0 80 1.8 NNW 28 37 15 20 1013.3 1013.3 0.4
25/01:30pm 14.5 8.2 10.9 79 1.9 N 35 43 19 23 1013.3 1013.3 0.2
25/01:00pm 14.0 8.1 11.3 84 1.4 N 33 44 18 24 1013.6 1013.6 0.2
25/12:30pm 12.9 7.2 9.7 81 1.6 NNW 30 43 16 23 1014.2 1014.2 0.2
25/12:00pm 13.9 7.9 10.1 78 2.0 N 32 43 17 23 1013.9 1013.9 0.0
25/11:30am 14.0 8.8 10.2 78 2.0 N 28 35 15 19 1014.3 1014.3 0.0
25/11:00am 13.6 7.5 9.6 77 2.0 N 32 44 17 24 1014.6 1014.6 0.0
25/10:30am 13.4 8.4 9.5 77 2.0 NNE 26 33 14 18 1014.6 1014.6 0.0
25/10:00am 13.4 7.6 9.6 78 1.9 N 30 35 16 19 1014.5 1014.5 0.0
25/09:30am 12.9 7.8 9.2 78 1.9 NNE 26 33 14 18 1014.5 1014.5 0.0
25/09:00am 13.1 7.2 9.0 76 2.1 NNE 30 35 16 19 1014.4 1014.4 0.0
25/08:30am 14.0 8.9 9.2 73 2.4 N 26 30 14 16 1014.2 1014.2 0.0
25/08:00am 13.8 9.0 8.8 72 2.5 NNW 24 35 13 19 1014.5 1014.5 0.0
25/07:30am 12.8 8.0 8.9 77 2.0 NNE 24 32 13 17 1014.5 1014.5 0.0
25/07:00am 13.3 8.1 8.8 74 2.3 N 26 32 14 17 1014.4 1014.4 0.0
25/06:30am 13.2 8.4 8.7 74 2.3 N 24 30 13 16 1014.5 1014.5 0.0
25/06:00am 12.7 8.1 8.0 73 2.3 NNW 22 35 12 19 1014.7 1014.7 0.0
25/05:46am 12.9 7.0 7.4 69 2.7 NW 28 46 15 25 1014.8 1014.8 0.0
25/05:30am 13.7 9.3 7.5 66 3.0 NW 20 30 11 16 1014.7 1014.7 0.0
25/05:00am 13.7 8.9 7.5 66 3.0 NNW 22 30 12 16 1014.8 1014.8 0.0
25/04:30am 13.5 8.3 7.1 65 3.1 NNW 24 32 13 17 1015.1 1015.1 0.0
25/04:00am 13.3 9.0 8.0 70 2.6 NW 20 28 11 15 1015.3 1015.3 0.0
25/03:30am 13.2 7.8 7.9 70 2.6 WNW 26 33 14 18 1015.6 1015.6 0.0
25/03:00am 13.1 7.4 8.2 72 2.4 NW 28 43 15 23 1015.6 1015.6 0.0
25/02:30am 13.5 9.1 7.5 67 2.9 NNW 20 28 11 15 1016.1 1016.0 0.0
25/02:00am 13.6 8.5 7.6 67 2.9 NNW 24 32 13 17 1016.3 1016.2 0.0
25/01:30am 13.7 8.9 7.5 66 3.0 N 22 30 12 16 1016.3 1016.2 0.0
25/01:00am 13.6 9.5 6.0 60 3.6 NNW 17 22 9 12 1016.4 1016.3 0.0
25/12:30am 13.3 9.7 5.2 58 3.8 NW 13 19 7 10 1016.4 1016.3 0.0
25/12:00am 13.2 10.1 5.6 60 3.6 NW 11 17 6 9 1016.6 1016.5 0.0
 
Date/Time
EDT
Temp
°C
App
Temp
°C
Dew
Point
Rel
Hum
%
Delta-T
°C
Wind Press
QNH
hPa
Press
MSL
hPa
Rain
since 9 am
mm
Dir
 
Spd
km/h
Gust
km/h
Spd
kts
Gust
kts
24/11:30pm 13.1 9.1 6.5 64 3.2 NW 17 22 9 12 1016.9 1016.8 0.0
24/11:00pm 13.1 10.0 7.3 68 2.8 N 13 20 7 11 1017.1 1017.0 0.0
24/10:30pm 13.1 9.6 5.3 59 3.6 NW 13 20 7 11 1017.4 1017.3 0.0
24/10:00pm 13.0 9.8 5.2 59 3.6 NW 11 15 6 8 1017.7 1017.6 0.0
24/09:30pm 12.9 10.0 6.7 66 3.0 NW 11 19 6 10 1017.9 1017.8 0.0
24/09:00pm 13.1 9.7 7.8 70 2.6 N 15 17 8 9 1018.1 1018.0 0.0
24/08:30pm 12.8 10.1 7.3 69 2.7 N 11 15 6 8 1018.0 1017.9 0.0
24/08:00pm 12.7 10.4 7.4 70 2.6 N 9 13 5 7 1018.1 1018.0 0.0
24/07:30pm 12.7 10.3 7.2 69 2.7 NNW 9 17 5 9 1018.0 1017.9 0.0
24/07:00pm 12.5 10.1 7.0 69 2.6 WNW 9 17 5 9 1017.9 1017.8 0.0
24/06:30pm 12.6 10.2 6.9 68 2.7 WNW 9 15 5 8 1017.9 1017.8 0.0
24/06:00pm 12.8 10.0 7.0 68 2.8 W 11 17 6 9 1017.8 1017.7 0.0

Other Formats:

Comma delimited format used in spreadsheet applications
http://www.bom.gov.au/fwo/IDT60801/IDT60801.94974.axf

JavaScript Object Notation format (JSON) in row-major order
http://www.bom.gov.au/fwo/IDT60801/IDT60801.94974.json